sensor_id;sensor_type;location;lat;lon;timestamp;P1;durP1;ratioP1;P2;durP2;ratioP2
20988;SDS011;10653;47.052;15.410;2023-06-22T00:01:05;12.80;;;10.97;;
20988;SDS011;10653;47.052;15.410;2023-06-22T00:03:31;17.73;;;10.23;;
20988;SDS011;10653;47.052;15.410;2023-06-22T00:05:57;11.80;;;9.00;;
20988;SDS011;10653;47.052;15.410;2023-06-22T00:08:23;12.20;;;9.30;;
20988;SDS011;10653;47.052;15.410;2023-06-22T00:10:49;18.73;;;11.33;;
20988;SDS011;10653;47.052;15.410;2023-06-22T00:13:16;13.17;;;9.60;;
20988;SDS011;10653;47.052;15.410;2023-06-22T00:15:43;10.80;;;9.33;;
20988;SDS011;10653;47.052;15.410;2023-06-22T00:18:09;14.93;;;9.97;;
20988;SDS011;10653;47.052;15.410;2023-06-22T00:20:36;12.47;;;10.00;;
20988;SDS011;10653;47.052;15.410;2023-06-22T00:23:03;15.10;;;8.97;;
20988;SDS011;10653;47.052;15.410;2023-06-22T00:25:33;15.20;;;10.00;;
20988;SDS011;10653;47.052;15.410;2023-06-22T00:27:59;12.90;;;10.17;;
20988;SDS011;10653;47.052;15.410;2023-06-22T00:30:25;15.80;;;9.67;;
20988;SDS011;10653;47.052;15.410;2023-06-22T00:32:51;14.77;;;9.83;;
20988;SDS011;10653;47.052;15.410;2023-06-22T00:35:16;14.67;;;9.60;;
20988;SDS011;10653;47.052;15.410;2023-06-22T00:37:42;10.73;;;8.57;;
20988;SDS011;10653;47.052;15.410;2023-06-22T00:40:09;11.80;;;10.00;;
20988;SDS011;10653;47.052;15.410;2023-06-22T00:42:37;12.57;;;9.50;;
20988;SDS011;10653;47.052;15.410;2023-06-22T00:45:04;11.30;;;10.20;;
20988;SDS011;10653;47.052;15.410;2023-06-22T00:47:30;13.80;;;10.63;;
20988;SDS011;10653;47.052;15.410;2023-06-22T00:49:56;18.10;;;10.67;;
20988;SDS011;10653;47.052;15.410;2023-06-22T00:52:22;12.50;;;9.70;;
20988;SDS011;10653;47.052;15.410;2023-06-22T00:54:52;13.97;;;10.30;;
20988;SDS011;10653;47.052;15.410;2023-06-22T00:57:18;11.47;;;10.03;;
20988;SDS011;10653;47.052;15.410;2023-06-22T00:59:44;12.33;;;9.07;;
20988;SDS011;10653;47.052;15.410;2023-06-22T01:02:11;14.00;;;10.17;;
20988;SDS011;10653;47.052;15.410;2023-06-22T01:04:38;12.07;;;10.03;;
20988;SDS011;10653;47.052;15.410;2023-06-22T01:07:19;12.67;;;9.53;;
20988;SDS011;10653;47.052;15.410;2023-06-22T01:09:59;14.27;;;10.00;;
20988;SDS011;10653;47.052;15.410;2023-06-22T01:12:30;11.33;;;8.20;;
20988;SDS011;10653;47.052;15.410;2023-06-22T01:15:02;15.07;;;9.87;;
20988;SDS011;10653;47.052;15.410;2023-06-22T01:17:29;11.30;;;9.87;;
20988;SDS011;10653;47.052;15.410;2023-06-22T01:19:55;13.20;;;10.87;;
20988;SDS011;10653;47.052;15.410;2023-06-22T01:22:28;14.63;;;9.47;;
20988;SDS011;10653;47.052;15.410;2023-06-22T01:30:18;13.57;;;9.87;;
20988;SDS011;10653;47.052;15.410;2023-06-22T01:32:44;16.77;;;9.77;;
20988;SDS011;10653;47.052;15.410;2023-06-22T01:35:10;13.33;;;10.13;;
20988;SDS011;10653;47.052;15.410;2023-06-22T01:37:37;13.20;;;10.40;;
20988;SDS011;10653;47.052;15.410;2023-06-22T01:40:04;16.43;;;10.60;;
20988;SDS011;10653;47.052;15.410;2023-06-22T01:42:31;17.97;;;11.33;;
20988;SDS011;10653;47.052;15.410;2023-06-22T01:44:57;14.17;;;9.47;;
20988;SDS011;10653;47.052;15.410;2023-06-22T01:47:24;15.03;;;9.80;;
20988;SDS011;10653;47.052;15.410;2023-06-22T01:49:50;10.93;;;9.83;;
20988;SDS011;10653;47.052;15.410;2023-06-22T01:52:17;12.53;;;10.10;;
20988;SDS011;10653;47.052;15.410;2023-06-22T01:54:43;14.40;;;10.60;;
20988;SDS011;10653;47.052;15.410;2023-06-22T01:57:09;16.30;;;9.53;;
20988;SDS011;10653;47.052;15.410;2023-06-22T02:02:18;14.13;;;11.10;;
20988;SDS011;10653;47.052;15.410;2023-06-22T02:04:51;16.10;;;10.53;;
20988;SDS011;10653;47.052;15.410;2023-06-22T02:07:18;14.00;;;11.20;;
20988;SDS011;10653;47.052;15.410;2023-06-22T02:09:46;16.20;;;11.03;;
20988;SDS011;10653;47.052;15.410;2023-06-22T02:12:16;16.50;;;9.93;;
20988;SDS011;10653;47.052;15.410;2023-06-22T02:14:42;13.07;;;8.70;;
20988;SDS011;10653;47.052;15.410;2023-06-22T02:17:09;12.10;;;9.87;;
20988;SDS011;10653;47.052;15.410;2023-06-22T02:19:38;12.40;;;9.23;;
20988;SDS011;10653;47.052;15.410;2023-06-22T02:22:06;16.17;;;9.87;;
20988;SDS011;10653;47.052;15.410;2023-06-22T02:24:32;16.00;;;9.50;;
20988;SDS011;10653;47.052;15.410;2023-06-22T02:26:59;14.00;;;10.67;;
20988;SDS011;10653;47.052;15.410;2023-06-22T02:29:25;13.40;;;10.13;;
20988;SDS011;10653;47.052;15.410;2023-06-22T02:31:54;11.13;;;9.97;;
20988;SDS011;10653;47.052;15.410;2023-06-22T02:34:21;11.20;;;8.93;;
20988;SDS011;10653;47.052;15.410;2023-06-22T02:36:50;13.73;;;8.80;;
20988;SDS011;10653;47.052;15.410;2023-06-22T02:39:20;14.37;;;9.83;;
20988;SDS011;10653;47.052;15.410;2023-06-22T02:41:47;14.77;;;10.80;;
20988;SDS011;10653;47.052;15.410;2023-06-22T02:44:13;14.07;;;9.00;;
20988;SDS011;10653;47.052;15.410;2023-06-22T02:46:39;16.30;;;9.70;;
20988;SDS011;10653;47.052;15.410;2023-06-22T02:49:05;13.90;;;9.40;;
20988;SDS011;10653;47.052;15.410;2023-06-22T02:51:32;9.97;;;8.77;;
20988;SDS011;10653;47.052;15.410;2023-06-22T02:54:01;18.00;;;9.77;;
20988;SDS011;10653;47.052;15.410;2023-06-22T02:56:30;12.67;;;9.10;;
20988;SDS011;10653;47.052;15.410;2023-06-22T02:58:56;13.07;;;9.87;;
20988;SDS011;10653;47.052;15.410;2023-06-22T03:01:29;15.30;;;10.80;;
20988;SDS011;10653;47.052;15.410;2023-06-22T03:04:02;12.13;;;9.37;;
20988;SDS011;10653;47.052;15.410;2023-06-22T03:06:28;12.27;;;10.00;;
20988;SDS011;10653;47.052;15.410;2023-06-22T03:08:58;16.80;;;10.10;;
20988;SDS011;10653;47.052;15.410;2023-06-22T03:11:24;14.50;;;9.93;;
20988;SDS011;10653;47.052;15.410;2023-06-22T03:13:50;11.90;;;9.57;;
20988;SDS011;10653;47.052;15.410;2023-06-22T03:16:18;13.57;;;9.27;;
20988;SDS011;10653;47.052;15.410;2023-06-22T03:18:44;12.50;;;10.60;;
20988;SDS011;10653;47.052;15.410;2023-06-22T03:21:10;13.40;;;9.97;;
20988;SDS011;10653;47.052;15.410;2023-06-22T03:23:36;12.10;;;9.20;;
20988;SDS011;10653;47.052;15.410;2023-06-22T03:26:02;13.93;;;9.40;;
20988;SDS011;10653;47.052;15.410;2023-06-22T03:28:29;13.33;;;10.73;;
20988;SDS011;10653;47.052;15.410;2023-06-22T03:30:57;12.53;;;9.47;;
20988;SDS011;10653;47.052;15.410;2023-06-22T03:33:23;10.93;;;9.67;;
20988;SDS011;10653;47.052;15.410;2023-06-22T03:35:49;15.40;;;10.13;;
20988;SDS011;10653;47.052;15.410;2023-06-22T03:38:15;15.67;;;10.27;;
20988;SDS011;10653;47.052;15.410;2023-06-22T03:40:42;12.40;;;10.23;;
20988;SDS011;10653;47.052;15.410;2023-06-22T03:43:08;16.13;;;10.50;;
20988;SDS011;10653;47.052;15.410;2023-06-22T03:45:34;12.77;;;9.43;;
20988;SDS011;10653;47.052;15.410;2023-06-22T03:48:00;13.30;;;10.60;;
20988;SDS011;10653;47.052;15.410;2023-06-22T03:50:26;14.83;;;11.70;;
20988;SDS011;10653;47.052;15.410;2023-06-22T03:52:52;11.20;;;10.07;;
20988;SDS011;10653;47.052;15.410;2023-06-22T03:55:21;13.47;;;10.10;;
20988;SDS011;10653;47.052;15.410;2023-06-22T03:57:47;13.37;;;9.70;;
20988;SDS011;10653;47.052;15.410;2023-06-22T04:00:13;16.17;;;10.40;;
20988;SDS011;10653;47.052;15.410;2023-06-22T04:02:41;14.17;;;10.90;;
20988;SDS011;10653;47.052;15.410;2023-06-22T04:05:08;17.80;;;11.43;;
20988;SDS011;10653;47.052;15.410;2023-06-22T04:07:34;15.60;;;10.37;;
20988;SDS011;10653;47.052;15.410;2023-06-22T04:10:02;16.90;;;11.50;;
20988;SDS011;10653;47.052;15.410;2023-06-22T04:12:28;11.63;;;10.37;;
20988;SDS011;10653;47.052;15.410;2023-06-22T04:14:54;14.10;;;11.87;;
20988;SDS011;10653;47.052;15.410;2023-06-22T04:17:20;13.13;;;10.83;;
20988;SDS011;10653;47.052;15.410;2023-06-22T04:19:46;15.10;;;11.50;;
20988;SDS011;10653;47.052;15.410;2023-06-22T04:22:12;15.63;;;10.87;;
20988;SDS011;10653;47.052;15.410;2023-06-22T04:24:38;15.93;;;11.23;;
20988;SDS011;10653;47.052;15.410;2023-06-22T04:27:04;15.33;;;10.40;;
20988;SDS011;10653;47.052;15.410;2023-06-22T04:29:30;15.20;;;11.03;;
20988;SDS011;10653;47.052;15.410;2023-06-22T04:31:57;14.87;;;11.10;;
20988;SDS011;10653;47.052;15.410;2023-06-22T04:34:24;16.10;;;11.40;;
20988;SDS011;10653;47.052;15.410;2023-06-22T04:36:51;15.23;;;12.87;;
20988;SDS011;10653;47.052;15.410;2023-06-22T04:39:17;16.83;;;13.17;;
20988;SDS011;10653;47.052;15.410;2023-06-22T04:41:44;17.40;;;12.53;;
20988;SDS011;10653;47.052;15.410;2023-06-22T04:44:11;14.90;;;11.20;;
20988;SDS011;10653;47.052;15.410;2023-06-22T04:46:37;16.00;;;13.18;;
20988;SDS011;10653;47.052;15.410;2023-06-22T04:49:09;18.00;;;12.27;;
20988;SDS011;10653;47.052;15.410;2023-06-22T04:51:39;16.90;;;12.57;;
20988;SDS011;10653;47.052;15.410;2023-06-22T04:54:06;16.87;;;12.20;;
20988;SDS011;10653;47.052;15.410;2023-06-22T04:56:33;20.87;;;12.53;;
20988;SDS011;10653;47.052;15.410;2023-06-22T04:58:59;22.07;;;13.60;;
20988;SDS011;10653;47.052;15.410;2023-06-22T05:01:25;15.88;;;13.23;;
20988;SDS011;10653;47.052;15.410;2023-06-22T05:03:51;17.60;;;12.20;;
20988;SDS011;10653;47.052;15.410;2023-06-22T05:06:22;14.30;;;12.80;;
20988;SDS011;10653;47.052;15.410;2023-06-22T05:08:54;21.17;;;12.63;;
20988;SDS011;10653;47.052;15.410;2023-06-22T05:11:24;15.73;;;12.77;;
20988;SDS011;10653;47.052;15.410;2023-06-22T05:13:50;16.73;;;11.70;;
20988;SDS011;10653;47.052;15.410;2023-06-22T05:16:16;17.87;;;12.80;;
20988;SDS011;10653;47.052;15.410;2023-06-22T05:18:42;16.23;;;12.40;;
20988;SDS011;10653;47.052;15.410;2023-06-22T05:21:08;15.00;;;11.83;;
20988;SDS011;10653;47.052;15.410;2023-06-22T05:23:34;14.10;;;11.30;;
20988;SDS011;10653;47.052;15.410;2023-06-22T05:26:00;16.80;;;13.13;;
20988;SDS011;10653;47.052;15.410;2023-06-22T05:28:26;19.70;;;12.87;;
20988;SDS011;10653;47.052;15.410;2023-06-22T05:30:52;16.13;;;12.33;;
20988;SDS011;10653;47.052;15.410;2023-06-22T05:33:18;19.10;;;13.30;;
20988;SDS011;10653;47.052;15.410;2023-06-22T05:35:44;17.80;;;13.63;;
20988;SDS011;10653;47.052;15.410;2023-06-22T05:38:11;19.53;;;13.10;;
20988;SDS011;10653;47.052;15.410;2023-06-22T05:40:37;19.10;;;14.50;;
20988;SDS011;10653;47.052;15.410;2023-06-22T05:43:03;18.20;;;14.77;;
20988;SDS011;10653;47.052;15.410;2023-06-22T05:45:29;18.30;;;14.57;;
20988;SDS011;10653;47.052;15.410;2023-06-22T05:47:55;19.83;;;14.40;;
20988;SDS011;10653;47.052;15.410;2023-06-22T05:50:21;18.30;;;13.40;;
20988;SDS011;10653;47.052;15.410;2023-06-22T05:52:47;16.73;;;13.23;;
20988;SDS011;10653;47.052;15.410;2023-06-22T05:55:13;18.50;;;12.10;;
20988;SDS011;10653;47.052;15.410;2023-06-22T05:57:40;17.07;;;12.40;;
20988;SDS011;10653;47.052;15.410;2023-06-22T06:00:06;15.57;;;13.70;;
20988;SDS011;10653;47.052;15.410;2023-06-22T06:02:35;17.73;;;12.60;;
20988;SDS011;10653;47.052;15.410;2023-06-22T06:05:01;19.43;;;15.43;;
20988;SDS011;10653;47.052;15.410;2023-06-22T06:07:28;22.57;;;14.83;;
20988;SDS011;10653;47.052;15.410;2023-06-22T06:09:54;20.10;;;15.27;;
20988;SDS011;10653;47.052;15.410;2023-06-22T06:12:20;23.53;;;14.53;;
20988;SDS011;10653;47.052;15.410;2023-06-22T06:14:46;21.10;;;17.10;;
20988;SDS011;10653;47.052;15.410;2023-06-22T06:17:12;18.00;;;15.40;;
20988;SDS011;10653;47.052;15.410;2023-06-22T06:19:38;24.43;;;14.83;;
20988;SDS011;10653;47.052;15.410;2023-06-22T06:22:04;21.53;;;15.20;;
20988;SDS011;10653;47.052;15.410;2023-06-22T06:24:30;22.20;;;14.50;;
20988;SDS011;10653;47.052;15.410;2023-06-22T06:26:56;23.30;;;16.03;;
20988;SDS011;10653;47.052;15.410;2023-06-22T06:29:22;19.83;;;15.60;;
20988;SDS011;10653;47.052;15.410;2023-06-22T06:31:48;17.10;;;15.30;;
20988;SDS011;10653;47.052;15.410;2023-06-22T06:34:15;18.43;;;14.97;;
20988;SDS011;10653;47.052;15.410;2023-06-22T06:36:41;20.03;;;15.67;;
20988;SDS011;10653;47.052;15.410;2023-06-22T06:39:07;23.10;;;15.87;;
20988;SDS011;10653;47.052;15.410;2023-06-22T06:41:33;16.07;;;14.37;;
20988;SDS011;10653;47.052;15.410;2023-06-22T06:43:59;16.77;;;15.00;;
20988;SDS011;10653;47.052;15.410;2023-06-22T06:46:25;18.43;;;14.70;;
20988;SDS011;10653;47.052;15.410;2023-06-22T06:48:51;21.43;;;14.97;;
20988;SDS011;10653;47.052;15.410;2023-06-22T06:51:17;21.33;;;15.17;;
20988;SDS011;10653;47.052;15.410;2023-06-22T06:53:43;21.70;;;15.37;;
20988;SDS011;10653;47.052;15.410;2023-06-22T06:56:09;18.43;;;13.87;;
20988;SDS011;10653;47.052;15.410;2023-06-22T06:58:36;23.10;;;14.87;;
20988;SDS011;10653;47.052;15.410;2023-06-22T07:01:02;15.73;;;14.10;;
20988;SDS011;10653;47.052;15.410;2023-06-22T07:03:28;18.60;;;14.00;;
20988;SDS011;10653;47.052;15.410;2023-06-22T07:05:54;16.37;;;14.63;;
20988;SDS011;10653;47.052;15.410;2023-06-22T07:08:20;17.73;;;14.43;;
20988;SDS011;10653;47.052;15.410;2023-06-22T07:10:46;15.53;;;13.93;;
20988;SDS011;10653;47.052;15.410;2023-06-22T07:13:12;19.20;;;14.60;;
20988;SDS011;10653;47.052;15.410;2023-06-22T07:15:38;16.97;;;13.70;;
20988;SDS011;10653;47.052;15.410;2023-06-22T07:18:04;17.20;;;14.20;;
20988;SDS011;10653;47.052;15.410;2023-06-22T07:20:30;16.83;;;13.50;;
20988;SDS011;10653;47.052;15.410;2023-06-22T07:22:56;17.03;;;13.87;;
20988;SDS011;10653;47.052;15.410;2023-06-22T07:25:23;15.50;;;13.80;;
20988;SDS011;10653;47.052;15.410;2023-06-22T07:27:59;22.03;;;14.47;;
20988;SDS011;10653;47.052;15.410;2023-06-22T07:30:26;18.10;;;14.83;;
20988;SDS011;10653;47.052;15.410;2023-06-22T07:32:52;17.80;;;14.33;;
20988;SDS011;10653;47.052;15.410;2023-06-22T07:35:18;19.30;;;15.20;;
20988;SDS011;10653;47.052;15.410;2023-06-22T07:37:44;15.90;;;14.20;;
20988;SDS011;10653;47.052;15.410;2023-06-22T07:40:10;20.83;;;14.60;;
20988;SDS011;10653;47.052;15.410;2023-06-22T07:42:37;17.87;;;14.10;;
20988;SDS011;10653;47.052;15.410;2023-06-22T07:45:03;20.23;;;15.03;;
20988;SDS011;10653;47.052;15.410;2023-06-22T07:47:29;19.30;;;15.70;;
20988;SDS011;10653;47.052;15.410;2023-06-22T07:49:57;19.00;;;15.00;;
20988;SDS011;10653;47.052;15.410;2023-06-22T07:52:26;17.03;;;15.07;;
20988;SDS011;10653;47.052;15.410;2023-06-22T07:54:52;18.87;;;14.30;;
20988;SDS011;10653;47.052;15.410;2023-06-22T07:57:18;17.93;;;14.87;;
20988;SDS011;10653;47.052;15.410;2023-06-22T07:59:44;19.63;;;14.43;;
20988;SDS011;10653;47.052;15.410;2023-06-22T08:02:10;16.43;;;14.07;;
20988;SDS011;10653;47.052;15.410;2023-06-22T08:04:36;15.47;;;13.87;;
20988;SDS011;10653;47.052;15.410;2023-06-22T08:07:03;19.00;;;15.30;;
20988;SDS011;10653;47.052;15.410;2023-06-22T08:09:30;15.47;;;13.70;;
20988;SDS011;10653;47.052;15.410;2023-06-22T08:11:56;19.57;;;14.83;;
20988;SDS011;10653;47.052;15.410;2023-06-22T08:14:26;17.23;;;13.90;;
20988;SDS011;10653;47.052;15.410;2023-06-22T08:16:52;14.83;;;12.27;;
20988;SDS011;10653;47.052;15.410;2023-06-22T08:19:18;15.13;;;13.63;;
20988;SDS011;10653;47.052;15.410;2023-06-22T08:21:44;16.73;;;13.70;;
20988;SDS011;10653;47.052;15.410;2023-06-22T08:24:10;15.13;;;12.50;;
20988;SDS011;10653;47.052;15.410;2023-06-22T08:26:36;15.60;;;13.50;;
20988;SDS011;10653;47.052;15.410;2023-06-22T08:29:03;17.83;;;14.83;;
20988;SDS011;10653;47.052;15.410;2023-06-22T08:31:30;21.20;;;14.67;;
20988;SDS011;10653;47.052;15.410;2023-06-22T08:33:58;18.10;;;14.03;;
20988;SDS011;10653;47.052;15.410;2023-06-22T08:36:24;16.87;;;14.77;;
20988;SDS011;10653;47.052;15.410;2023-06-22T08:38:50;16.60;;;14.90;;
20988;SDS011;10653;47.052;15.410;2023-06-22T08:41:17;15.90;;;14.23;;
20988;SDS011;10653;47.052;15.410;2023-06-22T08:43:43;16.27;;;13.77;;
20988;SDS011;10653;47.052;15.410;2023-06-22T08:46:10;15.10;;;13.57;;
20988;SDS011;10653;47.052;15.410;2023-06-22T08:48:36;14.87;;;13.33;;
20988;SDS011;10653;47.052;15.410;2023-06-22T08:51:02;12.90;;;11.70;;
20988;SDS011;10653;47.052;15.410;2023-06-22T08:53:28;13.30;;;11.97;;
20988;SDS011;10653;47.052;15.410;2023-06-22T08:55:54;15.03;;;13.50;;
20988;SDS011;10653;47.052;15.410;2023-06-22T08:58:20;15.27;;;13.67;;
20988;SDS011;10653;47.052;15.410;2023-06-22T09:00:47;15.77;;;13.20;;
20988;SDS011;10653;47.052;15.410;2023-06-22T09:03:13;16.03;;;14.00;;
20988;SDS011;10653;47.052;15.410;2023-06-22T09:05:39;14.60;;;13.20;;
20988;SDS011;10653;47.052;15.410;2023-06-22T09:08:05;14.10;;;12.47;;
20988;SDS011;10653;47.052;15.410;2023-06-22T09:10:31;15.23;;;13.73;;
20988;SDS011;10653;47.052;15.410;2023-06-22T09:12:57;14.30;;;12.73;;
20988;SDS011;10653;47.052;15.410;2023-06-22T09:15:23;13.07;;;11.77;;
20988;SDS011;10653;47.052;15.410;2023-06-22T09:17:49;14.10;;;11.50;;
20988;SDS011;10653;47.052;15.410;2023-06-22T09:20:15;13.87;;;12.30;;
20988;SDS011;10653;47.052;15.410;2023-06-22T09:22:41;18.67;;;11.97;;
20988;SDS011;10653;47.052;15.410;2023-06-22T09:25:08;14.37;;;12.57;;
20988;SDS011;10653;47.052;15.410;2023-06-22T09:27:34;13.63;;;11.47;;
20988;SDS011;10653;47.052;15.410;2023-06-22T09:30:00;18.07;;;13.37;;
20988;SDS011;10653;47.052;15.410;2023-06-22T09:32:26;18.43;;;13.73;;
20988;SDS011;10653;47.052;15.410;2023-06-22T09:34:52;17.00;;;12.57;;
20988;SDS011;10653;47.052;15.410;2023-06-22T09:37:18;16.17;;;12.77;;
20988;SDS011;10653;47.052;15.410;2023-06-22T09:39:44;13.57;;;12.10;;
20988;SDS011;10653;47.052;15.410;2023-06-22T09:42:10;14.10;;;12.70;;
20988;SDS011;10653;47.052;15.410;2023-06-22T09:44:38;14.77;;;13.37;;
20988;SDS011;10653;47.052;15.410;2023-06-22T09:47:04;17.20;;;13.97;;
20988;SDS011;10653;47.052;15.410;2023-06-22T09:49:30;16.20;;;13.97;;
20988;SDS011;10653;47.052;15.410;2023-06-22T09:51:57;15.13;;;13.50;;
20988;SDS011;10653;47.052;15.410;2023-06-22T09:54:23;17.70;;;14.13;;
20988;SDS011;10653;47.052;15.410;2023-06-22T09:56:49;15.23;;;13.47;;
20988;SDS011;10653;47.052;15.410;2023-06-22T09:59:15;18.00;;;14.17;;
20988;SDS011;10653;47.052;15.410;2023-06-22T10:01:41;16.37;;;13.80;;
20988;SDS011;10653;47.052;15.410;2023-06-22T10:04:07;15.77;;;14.07;;
20988;SDS011;10653;47.052;15.410;2023-06-22T10:06:33;18.30;;;12.87;;
20988;SDS011;10653;47.052;15.410;2023-06-22T10:08:59;19.10;;;14.47;;
20988;SDS011;10653;47.052;15.410;2023-06-22T10:11:25;15.70;;;14.07;;
20988;SDS011;10653;47.052;15.410;2023-06-22T10:13:55;14.80;;;13.37;;
20988;SDS011;10653;47.052;15.410;2023-06-22T10:16:21;20.03;;;14.77;;
20988;SDS011;10653;47.052;15.410;2023-06-22T10:18:47;18.40;;;14.80;;
20988;SDS011;10653;47.052;15.410;2023-06-22T10:21:13;15.37;;;13.87;;
20988;SDS011;10653;47.052;15.410;2023-06-22T10:23:40;16.40;;;14.80;;
20988;SDS011;10653;47.052;15.410;2023-06-22T10:26:06;17.90;;;15.90;;
20988;SDS011;10653;47.052;15.410;2023-06-22T10:28:32;19.30;;;16.00;;
20988;SDS011;10653;47.052;15.410;2023-06-22T10:30:58;16.10;;;14.60;;
20988;SDS011;10653;47.052;15.410;2023-06-22T10:33:24;15.20;;;13.70;;
20988;SDS011;10653;47.052;15.410;2023-06-22T10:35:50;15.97;;;14.30;;
20988;SDS011;10653;47.052;15.410;2023-06-22T10:38:16;15.80;;;14.13;;
20988;SDS011;10653;47.052;15.410;2023-06-22T10:40:42;16.13;;;14.63;;
20988;SDS011;10653;47.052;15.410;2023-06-22T10:43:08;14.67;;;13.23;;
20988;SDS011;10653;47.052;15.410;2023-06-22T10:45:34;16.17;;;13.40;;
20988;SDS011;10653;47.052;15.410;2023-06-22T10:48:00;14.37;;;12.37;;
20988;SDS011;10653;47.052;15.410;2023-06-22T10:50:26;15.13;;;13.20;;
20988;SDS011;10653;47.052;15.410;2023-06-22T10:52:53;15.60;;;14.10;;
20988;SDS011;10653;47.052;15.410;2023-06-22T10:55:19;20.83;;;13.37;;
20988;SDS011;10653;47.052;15.410;2023-06-22T10:57:45;18.73;;;13.37;;
20988;SDS011;10653;47.052;15.410;2023-06-22T11:00:12;17.00;;;15.20;;
20988;SDS011;10653;47.052;15.410;2023-06-22T11:02:38;17.17;;;13.83;;
20988;SDS011;10653;47.052;15.410;2023-06-22T11:05:05;15.23;;;13.50;;
20988;SDS011;10653;47.052;15.410;2023-06-22T11:07:31;15.97;;;13.30;;
20988;SDS011;10653;47.052;15.410;2023-06-22T11:09:58;17.03;;;15.23;;
20988;SDS011;10653;47.052;15.410;2023-06-22T11:12:24;18.43;;;14.20;;
20988;SDS011;10653;47.052;15.410;2023-06-22T11:14:50;16.87;;;15.17;;
20988;SDS011;10653;47.052;15.410;2023-06-22T11:17:17;17.37;;;14.13;;
20988;SDS011;10653;47.052;15.410;2023-06-22T11:19:43;16.90;;;14.40;;
20988;SDS011;10653;47.052;15.410;2023-06-22T11:22:10;19.97;;;14.57;;
20988;SDS011;10653;47.052;15.410;2023-06-22T11:24:36;16.87;;;13.67;;
20988;SDS011;10653;47.052;15.410;2023-06-22T11:27:01;17.17;;;14.20;;
20988;SDS011;10653;47.052;15.410;2023-06-22T11:29:27;15.60;;;14.10;;
20988;SDS011;10653;47.052;15.410;2023-06-22T11:31:54;19.57;;;15.17;;
20988;SDS011;10653;47.052;15.410;2023-06-22T11:34:20;14.87;;;13.33;;
20988;SDS011;10653;47.052;15.410;2023-06-22T11:36:46;14.97;;;13.60;;
20988;SDS011;10653;47.052;15.410;2023-06-22T11:39:13;14.80;;;13.30;;
20988;SDS011;10653;47.052;15.410;2023-06-22T11:41:40;21.70;;;13.83;;
20988;SDS011;10653;47.052;15.410;2023-06-22T11:44:06;18.70;;;13.70;;
20988;SDS011;10653;47.052;15.410;2023-06-22T11:46:32;18.73;;;14.27;;
20988;SDS011;10653;47.052;15.410;2023-06-22T11:48:59;19.80;;;13.93;;
20988;SDS011;10653;47.052;15.410;2023-06-22T11:51:26;16.37;;;13.93;;
20988;SDS011;10653;47.052;15.410;2023-06-22T11:53:52;17.60;;;15.00;;
20988;SDS011;10653;47.052;15.410;2023-06-22T11:56:18;15.40;;;13.63;;
20988;SDS011;10653;47.052;15.410;2023-06-22T11:58:43;15.80;;;14.30;;
20988;SDS011;10653;47.052;15.410;2023-06-22T12:01:09;15.80;;;14.17;;
20988;SDS011;10653;47.052;15.410;2023-06-22T12:03:38;16.57;;;14.83;;
20988;SDS011;10653;47.052;15.410;2023-06-22T12:06:04;15.20;;;13.57;;
20988;SDS011;10653;47.052;15.410;2023-06-22T12:08:30;16.10;;;14.50;;
20988;SDS011;10653;47.052;15.410;2023-06-22T12:10:56;16.17;;;14.43;;
20988;SDS011;10653;47.052;15.410;2023-06-22T12:13:22;15.77;;;14.27;;
20988;SDS011;10653;47.052;15.410;2023-06-22T12:15:48;15.87;;;14.00;;
20988;SDS011;10653;47.052;15.410;2023-06-22T12:18:14;16.33;;;14.63;;
20988;SDS011;10653;47.052;15.410;2023-06-22T12:20:40;15.60;;;13.93;;
20988;SDS011;10653;47.052;15.410;2023-06-22T12:23:06;14.60;;;13.00;;
20988;SDS011;10653;47.052;15.410;2023-06-22T12:25:32;19.70;;;14.17;;
20988;SDS011;10653;47.052;15.410;2023-06-22T12:27:58;16.37;;;14.13;;
20988;SDS011;10653;47.052;15.410;2023-06-22T12:30:24;15.50;;;14.00;;
20988;SDS011;10653;47.052;15.410;2023-06-22T12:32:50;17.30;;;13.90;;
20988;SDS011;10653;47.052;15.410;2023-06-22T12:35:16;14.17;;;12.67;;
20988;SDS011;10653;47.052;15.410;2023-06-22T12:37:42;15.33;;;13.73;;
20988;SDS011;10653;47.052;15.410;2023-06-22T12:40:08;17.17;;;14.33;;
20988;SDS011;10653;47.052;15.410;2023-06-22T12:42:35;16.37;;;13.93;;
20988;SDS011;10653;47.052;15.410;2023-06-22T12:45:01;14.10;;;12.60;;
20988;SDS011;10653;47.052;15.410;2023-06-22T12:47:27;17.20;;;14.27;;
20988;SDS011;10653;47.052;15.410;2023-06-22T12:49:53;15.40;;;13.53;;
20988;SDS011;10653;47.052;15.410;2023-06-22T12:52:19;21.40;;;14.73;;
20988;SDS011;10653;47.052;15.410;2023-06-22T12:54:45;14.00;;;12.10;;
20988;SDS011;10653;47.052;15.410;2023-06-22T12:57:11;15.53;;;14.00;;
20988;SDS011;10653;47.052;15.410;2023-06-22T12:59:37;16.80;;;13.77;;
20988;SDS011;10653;47.052;15.410;2023-06-22T13:02:03;16.53;;;13.30;;
20988;SDS011;10653;47.052;15.410;2023-06-22T13:04:29;16.23;;;14.30;;
20988;SDS011;10653;47.052;15.410;2023-06-22T13:06:55;15.67;;;13.70;;
20988;SDS011;10653;47.052;15.410;2023-06-22T13:09:21;14.87;;;13.20;;
20988;SDS011;10653;47.052;15.410;2023-06-22T13:11:47;19.50;;;13.27;;
20988;SDS011;10653;47.052;15.410;2023-06-22T13:14:13;14.83;;;12.70;;
20988;SDS011;10653;47.052;15.410;2023-06-22T13:16:41;14.30;;;12.90;;
20988;SDS011;10653;47.052;15.410;2023-06-22T13:19:07;18.00;;;12.63;;
20988;SDS011;10653;47.052;15.410;2023-06-22T13:21:33;14.43;;;12.27;;
20988;SDS011;10653;47.052;15.410;2023-06-22T13:23:59;15.30;;;13.77;;
20988;SDS011;10653;47.052;15.410;2023-06-22T13:26:26;14.47;;;13.07;;
20988;SDS011;10653;47.052;15.410;2023-06-22T13:28:53;14.70;;;13.20;;
20988;SDS011;10653;47.052;15.410;2023-06-22T13:31:19;14.17;;;12.87;;
20988;SDS011;10653;47.052;15.410;2023-06-22T13:33:46;14.33;;;13.00;;
20988;SDS011;10653;47.052;15.410;2023-06-22T13:36:13;15.83;;;14.23;;
20988;SDS011;10653;47.052;15.410;2023-06-22T13:38:39;14.27;;;12.90;;
20988;SDS011;10653;47.052;15.410;2023-06-22T13:41:06;15.17;;;13.53;;
20988;SDS011;10653;47.052;15.410;2023-06-22T13:43:32;14.10;;;12.60;;
20988;SDS011;10653;47.052;15.410;2023-06-22T13:45:58;15.53;;;13.07;;
20988;SDS011;10653;47.052;15.410;2023-06-22T13:48:24;15.53;;;13.93;;
20988;SDS011;10653;47.052;15.410;2023-06-22T13:50:51;14.20;;;12.80;;
20988;SDS011;10653;47.052;15.410;2023-06-22T13:53:17;15.37;;;13.90;;
20988;SDS011;10653;47.052;15.410;2023-06-22T13:55:43;21.93;;;13.80;;
20988;SDS011;10653;47.052;15.410;2023-06-22T13:58:09;15.93;;;14.23;;
20988;SDS011;10653;47.052;15.410;2023-06-22T14:00:35;15.03;;;13.33;;
20988;SDS011;10653;47.052;15.410;2023-06-22T14:03:01;14.70;;;13.17;;
20988;SDS011;10653;47.052;15.410;2023-06-22T14:05:27;17.57;;;14.17;;
20988;SDS011;10653;47.052;15.410;2023-06-22T14:07:53;17.53;;;14.40;;
20988;SDS011;10653;47.052;15.410;2023-06-22T14:10:19;17.50;;;15.77;;
20988;SDS011;10653;47.052;15.410;2023-06-22T14:12:45;16.73;;;15.23;;
20988;SDS011;10653;47.052;15.410;2023-06-22T14:15:11;14.70;;;13.20;;